CGILM CYVK-CYCG
Flight info
| Callsign | CGILM |
|---|---|
| Flight time | 0h 23m |
| Altitude | 20000 |
| Route | WHATS |
| Aircraft | C750/M-SBDE3FGHRWXY/S |
Departure
| Time | 2026-04-21 16:17 |
|---|---|
| Airport | Vernon Regional Airport (CYVK) |
Arrival
| Time | 2026-04-21 16:40 |
|---|---|
| Airport | Castlegar/West Kootenay Regional Airport (CYCG) |
| Time | Latitude | Longitude | Altitude | Speed | Heading |
|---|---|---|---|---|---|
| 2026-04-21 16:11 | 50.24888 | -119.32534 | 1174 ft | 0 kts | 182° |
| 2026-04-21 16:12 | 50.24886 | -119.32535 | 1174 ft | 1 kts | 182° |
| 2026-04-21 16:12 | 50.24864 | -119.32536 | 1173 ft | 4 kts | 182° |
| 2026-04-21 16:12 | 50.24844 | -119.32520 | 1173 ft | 3 kts | 151° |
| 2026-04-21 16:13 | 50.24812 | -119.32499 | 1172 ft | 6 kts | 162° |
| 2026-04-21 16:13 | 50.24770 | -119.32479 | 1173 ft | 7 kts | 163° |
| 2026-04-21 16:13 | 50.24746 | -119.32505 | 1170 ft | 5 kts | 256° |
| 2026-04-21 16:13 | 50.24734 | -119.32565 | 1170 ft | 8 kts | 252° |
| 2026-04-21 16:14 | 50.24711 | -119.32668 | 1170 ft | 13 kts | 251° |
| 2026-04-21 16:14 | 50.24680 | -119.32811 | 1169 ft | 15 kts | 251° |
| 2026-04-21 16:14 | 50.24657 | -119.32917 | 1170 ft | 16 kts | 251° |
| 2026-04-21 16:14 | 50.24611 | -119.33118 | 1171 ft | 15 kts | 251° |
| 2026-04-21 16:15 | 50.24575 | -119.33281 | 1169 ft | 16 kts | 251° |
| 2026-04-21 16:15 | 50.24541 | -119.33434 | 1171 ft | 15 kts | 250° |
| 2026-04-21 16:15 | 50.24505 | -119.33591 | 1165 ft | 16 kts | 249° |
| 2026-04-21 16:15 | 50.24475 | -119.33728 | 1164 ft | 8 kts | 256° |
| 2026-04-21 16:16 | 50.24479 | -119.33768 | 1161 ft | 6 kts | 294° |
| 2026-04-21 16:16 | 50.24464 | -119.33794 | 1164 ft | 2 kts | 161° |
| 2026-04-21 16:16 | 50.24463 | -119.33778 | 1161 ft | 2 kts | 79° |
| 2026-04-21 16:16 | 50.24468 | -119.33756 | 1164 ft | 5 kts | 69° |
| 2026-04-21 16:17 | 50.24565 | -119.33324 | 1168 ft | 96 kts | 71° |
| 2026-04-21 16:17 | 50.24857 | -119.32010 | 1454 ft | 135 kts | 70° |
| 2026-04-21 16:17 | 50.25164 | -119.30644 | 2225 ft | 133 kts | 70° |
| 2026-04-21 16:17 | 50.25506 | -119.29198 | 2733 ft | 152 kts | 68° |
| 2026-04-21 16:18 | 50.26238 | -119.27888 | 3153 ft | 177 kts | 31° |
| 2026-04-21 16:18 | 50.27470 | -119.27636 | 3858 ft | 187 kts | 348° |
| 2026-04-21 16:18 | 50.28751 | -119.28230 | 4615 ft | 198 kts | 343° |
| 2026-04-21 16:18 | 50.30116 | -119.28833 | 5360 ft | 208 kts | 345° |
| 2026-04-21 16:19 | 50.31589 | -119.28821 | 5800 ft | 233 kts | 22° |
| 2026-04-21 16:19 | 50.33034 | -119.27408 | 6230 ft | 254 kts | 30° |
| 2026-04-21 16:19 | 50.34640 | -119.26167 | 7048 ft | 260 kts | 25° |
| 2026-04-21 16:19 | 50.36247 | -119.24829 | 7959 ft | 264 kts | 37° |
| 2026-04-21 16:20 | 50.37418 | -119.22514 | 8534 ft | 289 kts | 64° |
| 2026-04-21 16:20 | 50.37780 | -119.19425 | 9434 ft | 292 kts | 94° |
| 2026-04-21 16:20 | 50.37145 | -119.16402 | 10109 ft | 301 kts | 124° |
| 2026-04-21 16:20 | 50.35612 | -119.14152 | 10654 ft | 309 kts | 150° |
| 2026-04-21 16:21 | 50.33615 | -119.12707 | 11088 ft | 323 kts | 160° |
| 2026-04-21 16:21 | 50.31550 | -119.11458 | 12019 ft | 318 kts | 162° |
| 2026-04-21 16:21 | 50.29462 | -119.10276 | 12694 ft | 328 kts | 163° |
| 2026-04-21 16:21 | 50.27239 | -119.09023 | 12830 ft | 351 kts | 163° |
| 2026-04-21 16:22 | 50.24883 | -119.07617 | 13382 ft | 359 kts | 161° |
| 2026-04-21 16:22 | 50.22662 | -119.05971 | 14206 ft | 360 kts | 155° |
| 2026-04-21 16:22 | 50.20562 | -119.03780 | 14855 ft | 366 kts | 146° |
| 2026-04-21 16:22 | 50.18572 | -119.01214 | 15162 ft | 381 kts | 143° |
| 2026-04-21 16:23 | 50.16491 | -118.98471 | 15019 ft | 404 kts | 143° |
| 2026-04-21 16:23 | 50.14357 | -118.95438 | 14870 ft | 427 kts | 135° |
| 2026-04-21 16:23 | 50.12723 | -118.91477 | 14713 ft | 434 kts | 118° |
| 2026-04-21 16:23 | 50.11735 | -118.87107 | 14904 ft | 423 kts | 108° |
| 2026-04-21 16:24 | 50.11042 | -118.82680 | 14950 ft | 420 kts | 105° |
| 2026-04-21 16:24 | 50.10314 | -118.78225 | 14961 ft | 427 kts | 110° |
| 2026-04-21 16:24 | 50.09223 | -118.73894 | 14997 ft | 431 kts | 117° |
| 2026-04-21 16:24 | 50.07918 | -118.69680 | 15003 ft | 433 kts | 119° |
| 2026-04-21 16:25 | 50.06629 | -118.65443 | 15001 ft | 435 kts | 116° |
| 2026-04-21 16:25 | 50.05523 | -118.61051 | 15013 ft | 436 kts | 112° |
| 2026-04-21 16:25 | 50.04471 | -118.56618 | 15015 ft | 437 kts | 114° |
| 2026-04-21 16:25 | 50.03304 | -118.52262 | 15011 ft | 436 kts | 116° |
| 2026-04-21 16:26 | 50.02082 | -118.47947 | 15023 ft | 436 kts | 116° |
| 2026-04-21 16:26 | 50.00978 | -118.43766 | 15010 ft | 400 kts | 114° |
| 2026-04-21 16:26 | 50.00010 | -118.39924 | 15010 ft | 365 kts | 114° |
| 2026-04-21 16:26 | 49.99040 | -118.36288 | 15017 ft | 373 kts | 116° |
| 2026-04-21 16:27 | 49.97984 | -118.32476 | 15027 ft | 395 kts | 116° |
| 2026-04-21 16:27 | 49.96816 | -118.28522 | 14998 ft | 410 kts | 122° |
| 2026-04-21 16:27 | 49.95009 | -118.25042 | 15019 ft | 418 kts | 139° |
| 2026-04-21 16:27 | 49.92836 | -118.22016 | 15042 ft | 415 kts | 142° |
| 2026-04-21 16:28 | 49.90684 | -118.19112 | 15032 ft | 413 kts | 142° |
| 2026-04-21 16:28 | 49.88513 | -118.16182 | 15032 ft | 415 kts | 142° |
| 2026-04-21 16:28 | 49.86345 | -118.13221 | 15031 ft | 416 kts | 142° |
| 2026-04-21 16:28 | 49.84170 | -118.10250 | 15009 ft | 418 kts | 142° |
| 2026-04-21 16:29 | 49.81989 | -118.07296 | 15005 ft | 417 kts | 142° |
| 2026-04-21 16:29 | 49.79804 | -118.04348 | 15003 ft | 417 kts | 142° |
| 2026-04-21 16:29 | 49.77624 | -118.01397 | 15000 ft | 417 kts | 142° |
| 2026-04-21 16:29 | 49.75446 | -117.98446 | 15000 ft | 416 kts | 142° |
| 2026-04-21 16:30 | 49.73267 | -117.95507 | 14994 ft | 416 kts | 142° |
| 2026-04-21 16:30 | 49.71083 | -117.92565 | 14817 ft | 418 kts | 142° |
| 2026-04-21 16:30 | 49.68940 | -117.89665 | 14309 ft | 413 kts | 142° |
| 2026-04-21 16:30 | 49.66783 | -117.86761 | 13766 ft | 410 kts | 142° |
| 2026-04-21 16:31 | 49.64644 | -117.83896 | 13208 ft | 402 kts | 142° |
| 2026-04-21 16:31 | 49.62603 | -117.81147 | 12681 ft | 376 kts | 141° |
| 2026-04-21 16:31 | 49.60704 | -117.78563 | 12187 ft | 352 kts | 141° |
| 2026-04-21 16:31 | 49.58910 | -117.76176 | 11754 ft | 331 kts | 141° |
| 2026-04-21 16:32 | 49.57228 | -117.73911 | 11415 ft | 313 kts | 141° |
| 2026-04-21 16:32 | 49.55626 | -117.71804 | 11108 ft | 290 kts | 142° |
| 2026-04-21 16:32 | 49.54178 | -117.69890 | 10805 ft | 257 kts | 142° |
| 2026-04-21 16:32 | 49.52889 | -117.68002 | 10489 ft | 260 kts | 129° |
| 2026-04-21 16:33 | 49.52243 | -117.65417 | 10121 ft | 260 kts | 100° |
| 2026-04-21 16:33 | 49.52070 | -117.62698 | 9901 ft | 254 kts | 95° |
| 2026-04-21 16:33 | 49.51943 | -117.59971 | 9550 ft | 254 kts | 95° |
| 2026-04-21 16:33 | 49.51783 | -117.57325 | 9224 ft | 250 kts | 97° |
| 2026-04-21 16:34 | 49.51205 | -117.54860 | 8843 ft | 247 kts | 127° |
| 2026-04-21 16:34 | 49.49916 | -117.53178 | 8485 ft | 246 kts | 154° |
| 2026-04-21 16:34 | 49.48278 | -117.52676 | 8167 ft | 238 kts | 183° |
| 2026-04-21 16:34 | 49.46649 | -117.52926 | 8064 ft | 231 kts | 188° |
| 2026-04-21 16:35 | 49.45035 | -117.53190 | 7807 ft | 241 kts | 185° |
| 2026-04-21 16:35 | 49.43324 | -117.53404 | 7008 ft | 252 kts | 184° |
| 2026-04-21 16:35 | 49.41608 | -117.53624 | 6704 ft | 239 kts | 185° |
| 2026-04-21 16:35 | 49.40032 | -117.54283 | 6566 ft | 238 kts | 207° |
| 2026-04-21 16:36 | 49.38618 | -117.55550 | 6348 ft | 234 kts | 210° |
| 2026-04-21 16:36 | 49.37234 | -117.56768 | 6043 ft | 225 kts | 208° |
| 2026-04-21 16:36 | 49.35892 | -117.57895 | 5725 ft | 216 kts | 208° |
| 2026-04-21 16:36 | 49.34567 | -117.59018 | 5405 ft | 218 kts | 208° |
| 2026-04-21 16:37 | 49.33246 | -117.60152 | 5118 ft | 216 kts | 209° |
| 2026-04-21 16:37 | 49.31946 | -117.61273 | 4859 ft | 211 kts | 209° |
| 2026-04-21 16:37 | 49.30710 | -117.62432 | 4628 ft | 204 kts | 218° |
| 2026-04-21 16:37 | 49.29882 | -117.64094 | 4453 ft | 193 kts | 243° |
| 2026-04-21 16:38 | 49.29402 | -117.65939 | 4349 ft | 181 kts | 249° |
| 2026-04-21 16:38 | 49.28641 | -117.67410 | 4075 ft | 179 kts | 214° |
| 2026-04-21 16:38 | 49.27521 | -117.68065 | 3809 ft | 173 kts | 190° |
| 2026-04-21 16:38 | 49.26364 | -117.68163 | 3565 ft | 164 kts | 170° |
| 2026-04-21 16:39 | 49.25386 | -117.67319 | 3209 ft | 171 kts | 128° |
| 2026-04-21 16:39 | 49.25049 | -117.65557 | 2984 ft | 183 kts | 85° |
| 2026-04-21 16:39 | 49.25433 | -117.63775 | 2848 ft | 168 kts | 64° |
| 2026-04-21 16:39 | 49.26250 | -117.62572 | 2598 ft | 167 kts | 21° |
| 2026-04-21 16:40 | 49.27350 | -117.62591 | 2135 ft | 152 kts | 350° |
| 2026-04-21 16:40 | 49.28315 | -117.62866 | 1822 ft | 135 kts | 346° |
| 2026-04-21 16:40 | 49.29202 | -117.63128 | 1622 ft | 122 kts | 349° |
| 2026-04-21 16:40 | 49.29685 | -117.63272 | 1629 ft | 32 kts | 349° |
| 2026-04-21 16:41 | 49.29891 | -117.63332 | 1627 ft | 29 kts | 349° |
| 2026-04-21 16:41 | 49.30063 | -117.63382 | 1628 ft | 12 kts | 349° |
| 2026-04-21 16:41 | 49.30105 | -117.63449 | 1627 ft | 9 kts | 262° |
| 2026-04-21 16:41 | 49.30091 | -117.63541 | 1627 ft | 9 kts | 247° |
| 2026-04-21 16:42 | 49.30043 | -117.63551 | 1627 ft | 6 kts | 169° |
| 2026-04-21 16:42 | 49.30015 | -117.63548 | 1626 ft | 2 kts | 196° |
| 2026-04-21 16:42 | 49.30007 | -117.63565 | 1628 ft | 6 kts | 240° |
| 2026-04-21 16:42 | 49.29978 | -117.63577 | 1629 ft | 3 kts | 72° |
| 2026-04-21 16:43 | 49.29978 | -117.63576 | 1623 ft | 0 kts | 66° |